sensor_id;sensor_type;location;lat;lon;timestamp;temperature;humidity
66343;DHT22;53144;51.524;5.080;2023-07-20T00:02:17;16.62;90.18
66343;DHT22;53144;51.524;5.080;2023-07-20T00:04:43;16.57;90.21
66343;DHT22;53144;51.524;5.080;2023-07-20T00:07:08;16.55;90.38
66343;DHT22;53144;51.524;5.080;2023-07-20T00:09:33;16.51;90.68
66343;DHT22;53144;51.524;5.080;2023-07-20T00:11:59;16.53;90.84
66343;DHT22;53144;51.524;5.080;2023-07-20T00:14:25;16.51;90.94
66343;DHT22;53144;51.524;5.080;2023-07-20T00:16:51;16.41;91.55
66343;DHT22;53144;51.524;5.080;2023-07-20T00:19:25;16.32;91.73
66343;DHT22;53144;51.524;5.080;2023-07-20T00:21:51;16.33;91.75
66343;DHT22;53144;51.524;5.080;2023-07-20T00:24:17;16.30;91.86
66343;DHT22;53144;51.524;5.080;2023-07-20T00:26:42;16.24;92.09
66343;DHT22;53144;51.524;5.080;2023-07-20T00:29:07;16.16;92.37
66343;DHT22;53144;51.524;5.080;2023-07-20T00:31:33;16.18;92.58
66343;DHT22;53144;51.524;5.080;2023-07-20T00:34:00;16.16;92.47
66343;DHT22;53144;51.524;5.080;2023-07-20T00:36:25;16.12;92.54
66343;DHT22;53144;51.524;5.080;2023-07-20T00:38:51;16.18;92.56
66343;DHT22;53144;51.524;5.080;2023-07-20T00:41:16;16.14;92.59
66343;DHT22;53144;51.524;5.080;2023-07-20T00:43:42;16.12;92.70
66343;DHT22;53144;51.524;5.080;2023-07-20T00:46:08;16.14;92.65
66343;DHT22;53144;51.524;5.080;2023-07-20T00:48:34;16.12;92.60
66343;DHT22;53144;51.524;5.080;2023-07-20T00:51:01;16.14;92.45
66343;DHT22;53144;51.524;5.080;2023-07-20T00:53:27;16.09;92.77
66343;DHT22;53144;51.524;5.080;2023-07-20T00:55:53;16.19;92.86
66343;DHT22;53144;51.524;5.080;2023-07-20T00:58:18;16.12;92.97
66343;DHT22;53144;51.524;5.080;2023-07-20T01:00:44;16.06;92.86
66343;DHT22;53144;51.524;5.080;2023-07-20T01:03:09;16.08;92.84
66343;DHT22;53144;51.524;5.080;2023-07-20T01:05:50;16.01;93.23
66343;DHT22;53144;51.524;5.080;2023-07-20T01:11:38;16.06;93.18
66343;DHT22;53144;51.524;5.080;2023-07-20T01:14:05;16.12;93.11
66343;DHT22;53144;51.524;5.080;2023-07-20T01:16:31;16.16;93.18
66343;DHT22;53144;51.524;5.080;2023-07-20T01:18:57;16.21;93.05
66343;DHT22;53144;51.524;5.080;2023-07-20T01:21:32;16.24;93.06
66343;DHT22;53144;51.524;5.080;2023-07-20T01:24:17;16.26;93.06
66343;DHT22;53144;51.524;5.080;2023-07-20T01:33:01;16.32;92.75
66343;DHT22;53144;51.524;5.080;2023-07-20T01:35:29;16.29;92.88
66343;DHT22;53144;51.524;5.080;2023-07-20T01:37:55;16.25;92.95
66343;DHT22;53144;51.524;5.080;2023-07-20T01:40:22;16.28;93.07
66343;DHT22;53144;51.524;5.080;2023-07-20T01:42:50;16.28;93.05
66343;DHT22;53144;51.524;5.080;2023-07-20T01:45:17;16.28;93.30
66343;DHT22;53144;51.524;5.080;2023-07-20T01:47:42;16.25;93.35
66343;DHT22;53144;51.524;5.080;2023-07-20T01:50:08;16.29;93.23
66343;DHT22;53144;51.524;5.080;2023-07-20T01:52:33;16.36;93.00
66343;DHT22;53144;51.524;5.080;2023-07-20T01:54:59;16.26;93.37
66343;DHT22;53144;51.524;5.080;2023-07-20T01:57:24;16.19;93.63
66343;DHT22;53144;51.524;5.080;2023-07-20T01:59:50;16.26;93.55
66343;DHT22;53144;51.524;5.080;2023-07-20T02:02:15;16.18;93.62
66343;DHT22;53144;51.524;5.080;2023-07-20T02:04:40;16.12;93.88
66343;DHT22;53144;51.524;5.080;2023-07-20T02:07:06;16.08;93.97
66343;DHT22;53144;51.524;5.080;2023-07-20T02:09:31;16.01;94.16
66343;DHT22;53144;51.524;5.080;2023-07-20T02:11:57;16.01;94.20
66343;DHT22;53144;51.524;5.080;2023-07-20T02:14:22;15.98;94.11
66343;DHT22;53144;51.524;5.080;2023-07-20T02:16:48;15.91;94.24
66343;DHT22;53144;51.524;5.080;2023-07-20T02:19:18;15.90;94.37
66343;DHT22;53144;51.524;5.080;2023-07-20T02:21:44;15.88;94.52
66343;DHT22;53144;51.524;5.080;2023-07-20T02:24:09;15.95;94.42
66343;DHT22;53144;51.524;5.080;2023-07-20T02:26:35;15.91;94.45
66343;DHT22;53144;51.524;5.080;2023-07-20T02:29:00;15.91;94.25
66343;DHT22;53144;51.524;5.080;2023-07-20T02:31:29;15.94;94.30
66343;DHT22;53144;51.524;5.080;2023-07-20T02:33:54;15.95;94.18
66343;DHT22;53144;51.524;5.080;2023-07-20T02:36:19;15.94;94.34
66343;DHT22;53144;51.524;5.080;2023-07-20T02:38:45;15.88;94.60
66343;DHT22;53144;51.524;5.080;2023-07-20T02:41:10;15.83;94.69
66343;DHT22;53144;51.524;5.080;2023-07-20T02:43:35;15.88;94.40
66343;DHT22;53144;51.524;5.080;2023-07-20T02:46:01;15.80;94.60
66343;DHT22;53144;51.524;5.080;2023-07-20T02:48:26;15.80;94.59
66343;DHT22;53144;51.524;5.080;2023-07-20T02:50:52;15.80;94.55
66343;DHT22;53144;51.524;5.080;2023-07-20T02:53:17;15.71;94.78
66343;DHT22;53144;51.524;5.080;2023-07-20T02:55:43;15.68;94.64
66343;DHT22;53144;51.524;5.080;2023-07-20T02:58:08;15.64;94.91
66343;DHT22;53144;51.524;5.080;2023-07-20T03:00:33;15.64;94.58
66343;DHT22;53144;51.524;5.080;2023-07-20T03:02:59;15.58;94.68
66343;DHT22;53144;51.524;5.080;2023-07-20T03:05:24;15.53;94.77
66343;DHT22;53144;51.524;5.080;2023-07-20T03:07:53;15.54;94.55
66343;DHT22;53144;51.524;5.080;2023-07-20T03:10:18;15.49;94.67
66343;DHT22;53144;51.524;5.080;2023-07-20T03:12:44;15.46;94.94
66343;DHT22;53144;51.524;5.080;2023-07-20T03:15:09;15.36;95.03
66343;DHT22;53144;51.524;5.080;2023-07-20T03:17:35;15.39;95.14
66343;DHT22;53144;51.524;5.080;2023-07-20T03:20:00;15.33;95.14
66343;DHT22;53144;51.524;5.080;2023-07-20T03:22:26;15.32;94.93
66343;DHT22;53144;51.524;5.080;2023-07-20T03:24:52;15.23;94.99
66343;DHT22;53144;51.524;5.080;2023-07-20T03:27:18;15.19;95.00
66343;DHT22;53144;51.524;5.080;2023-07-20T03:29:43;15.18;95.09
66343;DHT22;53144;51.524;5.080;2023-07-20T03:32:09;15.15;95.14
66343;DHT22;53144;51.524;5.080;2023-07-20T03:34:35;15.16;95.29
66343;DHT22;53144;51.524;5.080;2023-07-20T03:37:00;15.12;95.51
66343;DHT22;53144;51.524;5.080;2023-07-20T03:39:26;15.13;95.51
66343;DHT22;53144;51.524;5.080;2023-07-20T03:41:51;15.12;95.60
66343;DHT22;53144;51.524;5.080;2023-07-20T03:44:17;15.05;95.71
66343;DHT22;53144;51.524;5.080;2023-07-20T03:46:43;15.08;95.65
66343;DHT22;53144;51.524;5.080;2023-07-20T03:49:08;15.05;95.53
66343;DHT22;53144;51.524;5.080;2023-07-20T03:51:35;15.00;95.59
66343;DHT22;53144;51.524;5.080;2023-07-20T03:54:01;15.02;95.68
66343;DHT22;53144;51.524;5.080;2023-07-20T03:56:26;15.03;95.68
66343;DHT22;53144;51.524;5.080;2023-07-20T03:58:51;15.03;95.52
66343;DHT22;53144;51.524;5.080;2023-07-20T04:01:17;15.06;95.52
66343;DHT22;53144;51.524;5.080;2023-07-20T04:03:42;15.12;95.07
66343;DHT22;53144;51.524;5.080;2023-07-20T04:06:08;15.09;95.01
66343;DHT22;53144;51.524;5.080;2023-07-20T04:08:36;15.10;95.18
66343;DHT22;53144;51.524;5.080;2023-07-20T04:11:02;15.03;94.88
66343;DHT22;53144;51.524;5.080;2023-07-20T04:13:27;15.03;95.17
66343;DHT22;53144;51.524;5.080;2023-07-20T04:15:53;15.02;94.82
66343;DHT22;53144;51.524;5.080;2023-07-20T04:18:18;14.99;95.01
66343;DHT22;53144;51.524;5.080;2023-07-20T04:20:45;14.96;94.67
66343;DHT22;53144;51.524;5.080;2023-07-20T04:23:10;14.96;94.56
66343;DHT22;53144;51.524;5.080;2023-07-20T04:25:35;14.93;94.54
66343;DHT22;53144;51.524;5.080;2023-07-20T04:28:07;14.98;94.38
66343;DHT22;53144;51.524;5.080;2023-07-20T04:30:36;15.00;94.35
66343;DHT22;53144;51.524;5.080;2023-07-20T04:33:03;14.98;94.29
66343;DHT22;53144;51.524;5.080;2023-07-20T04:35:49;14.98;94.28
66343;DHT22;53144;51.524;5.080;2023-07-20T04:38:15;14.99;94.42
66343;DHT22;53144;51.524;5.080;2023-07-20T04:40:45;14.98;94.42
66343;DHT22;53144;51.524;5.080;2023-07-20T04:43:11;15.02;94.31
66343;DHT22;53144;51.524;5.080;2023-07-20T04:45:36;15.00;94.78
66343;DHT22;53144;51.524;5.080;2023-07-20T04:48:02;14.98;94.67
66343;DHT22;53144;51.524;5.080;2023-07-20T04:50:27;15.02;95.04
66343;DHT22;53144;51.524;5.080;2023-07-20T04:52:53;15.10;95.03
66343;DHT22;53144;51.524;5.080;2023-07-20T04:55:18;15.13;93.85
66343;DHT22;53144;51.524;5.080;2023-07-20T04:57:44;15.20;94.01
66343;DHT22;53144;51.524;5.080;2023-07-20T05:00:10;15.22;93.51
66343;DHT22;53144;51.524;5.080;2023-07-20T05:02:36;15.33;93.00
66343;DHT22;53144;51.524;5.080;2023-07-20T05:05:03;15.35;93.35
66343;DHT22;53144;51.524;5.080;2023-07-20T05:07:31;15.43;92.82
66343;DHT22;53144;51.524;5.080;2023-07-20T05:09:56;15.42;92.61
66343;DHT22;53144;51.524;5.080;2023-07-20T05:12:22;15.49;92.67
66343;DHT22;53144;51.524;5.080;2023-07-20T05:14:47;15.53;91.97
66343;DHT22;53144;51.524;5.080;2023-07-20T05:17:12;15.53;91.31
66343;DHT22;53144;51.524;5.080;2023-07-20T05:19:38;15.56;90.79
66343;DHT22;53144;51.524;5.080;2023-07-20T05:22:03;15.64;90.57
66343;DHT22;53144;51.524;5.080;2023-07-20T05:24:30;15.71;90.66
66343;DHT22;53144;51.524;5.080;2023-07-20T05:26:56;15.68;90.72
66343;DHT22;53144;51.524;5.080;2023-07-20T05:29:21;15.75;90.89
66343;DHT22;53144;51.524;5.080;2023-07-20T05:31:46;15.81;90.52
66343;DHT22;53144;51.524;5.080;2023-07-20T05:34:12;15.81;90.38
66343;DHT22;53144;51.524;5.080;2023-07-20T05:36:37;15.71;90.01
66343;DHT22;53144;51.524;5.080;2023-07-20T05:39:03;15.87;90.45
66343;DHT22;53144;51.524;5.080;2023-07-20T05:41:28;15.91;90.40
66343;DHT22;53144;51.524;5.080;2023-07-20T05:43:53;15.94;89.79
66343;DHT22;53144;51.524;5.080;2023-07-20T05:46:19;15.91;89.06
66343;DHT22;53144;51.524;5.080;2023-07-20T05:48:44;16.01;88.98
66343;DHT22;53144;51.524;5.080;2023-07-20T05:51:09;16.06;88.48
66343;DHT22;53144;51.524;5.080;2023-07-20T05:53:35;16.14;88.44
66343;DHT22;53144;51.524;5.080;2023-07-20T05:56:01;16.19;87.52
66343;DHT22;53144;51.524;5.080;2023-07-20T05:58:28;16.24;87.58
66343;DHT22;53144;51.524;5.080;2023-07-20T06:00:53;16.25;88.09
66343;DHT22;53144;51.524;5.080;2023-07-20T06:03:22;16.36;86.43
66343;DHT22;53144;51.524;5.080;2023-07-20T06:05:48;16.39;86.69
66343;DHT22;53144;51.524;5.080;2023-07-20T06:08:13;16.45;86.20
66343;DHT22;53144;51.524;5.080;2023-07-20T06:10:39;16.56;85.88
66343;DHT22;53144;51.524;5.080;2023-07-20T06:13:04;16.63;85.99
66343;DHT22;53144;51.524;5.080;2023-07-20T06:15:33;16.74;85.13
66343;DHT22;53144;51.524;5.080;2023-07-20T06:18:02;16.87;85.38
66343;DHT22;53144;51.524;5.080;2023-07-20T06:20:28;16.80;83.79
66343;DHT22;53144;51.524;5.080;2023-07-20T06:22:54;16.72;83.12
66343;DHT22;53144;51.524;5.080;2023-07-20T06:25:19;16.84;83.30
66343;DHT22;53144;51.524;5.080;2023-07-20T06:27:46;16.95;84.25
66343;DHT22;53144;51.524;5.080;2023-07-20T06:30:11;16.83;81.11
66343;DHT22;53144;51.524;5.080;2023-07-20T06:32:38;16.94;81.67
66343;DHT22;53144;51.524;5.080;2023-07-20T06:35:04;17.07;81.41
66343;DHT22;53144;51.524;5.080;2023-07-20T06:37:29;17.20;81.03
66343;DHT22;53144;51.524;5.080;2023-07-20T06:39:55;17.27;80.53
66343;DHT22;53144;51.524;5.080;2023-07-20T06:42:20;17.21;81.68
66343;DHT22;53144;51.524;5.080;2023-07-20T06:44:45;16.99;81.18
66343;DHT22;53144;51.524;5.080;2023-07-20T06:47:11;16.76;83.34
66343;DHT22;53144;51.524;5.080;2023-07-20T06:49:37;16.81;83.49
66343;DHT22;53144;51.524;5.080;2023-07-20T06:52:03;16.79;84.08
66343;DHT22;53144;51.524;5.080;2023-07-20T06:54:28;16.90;84.07
66343;DHT22;53144;51.524;5.080;2023-07-20T06:56:54;17.07;81.74
66343;DHT22;53144;51.524;5.080;2023-07-20T06:59:19;17.07;84.29
66343;DHT22;53144;51.524;5.080;2023-07-20T07:01:44;17.08;80.62
66343;DHT22;53144;51.524;5.080;2023-07-20T07:04:10;17.22;81.06
66343;DHT22;53144;51.524;5.080;2023-07-20T07:06:36;17.35;80.38
66343;DHT22;53144;51.524;5.080;2023-07-20T07:09:02;17.49;80.62
66343;DHT22;53144;51.524;5.080;2023-07-20T07:11:28;17.48;78.98
66343;DHT22;53144;51.524;5.080;2023-07-20T07:13:54;17.68;79.73
66343;DHT22;53144;51.524;5.080;2023-07-20T07:16:19;17.81;78.23
66343;DHT22;53144;51.524;5.080;2023-07-20T07:18:46;17.97;78.21
66343;DHT22;53144;51.524;5.080;2023-07-20T07:21:13;17.93;79.05
66343;DHT22;53144;51.524;5.080;2023-07-20T07:23:39;17.69;77.70
66343;DHT22;53144;51.524;5.080;2023-07-20T07:26:05;17.87;78.89
66343;DHT22;53144;51.524;5.080;2023-07-20T07:28:31;18.04;78.92
66343;DHT22;53144;51.524;5.080;2023-07-20T07:30:59;18.06;75.88
66343;DHT22;53144;51.524;5.080;2023-07-20T07:33:26;18.31;76.57
66343;DHT22;53144;51.524;5.080;2023-07-20T07:35:52;18.33;74.89
66343;DHT22;53144;51.524;5.080;2023-07-20T07:38:19;18.26;76.31
66343;DHT22;53144;51.524;5.080;2023-07-20T07:40:45;18.29;77.18
66343;DHT22;53144;51.524;5.080;2023-07-20T07:43:10;18.31;74.05
66343;DHT22;53144;51.524;5.080;2023-07-20T07:45:37;18.75;74.08
66343;DHT22;53144;51.524;5.080;2023-07-20T07:48:03;18.57;74.07
66343;DHT22;53144;51.524;5.080;2023-07-20T07:50:29;18.62;74.16
66343;DHT22;53144;51.524;5.080;2023-07-20T07:52:55;18.68;72.09
66343;DHT22;53144;51.524;5.080;2023-07-20T07:55:20;18.69;73.54
66343;DHT22;53144;51.524;5.080;2023-07-20T07:57:46;18.34;73.64
66343;DHT22;53144;51.524;5.080;2023-07-20T08:00:13;18.09;74.39
66343;DHT22;53144;51.524;5.080;2023-07-20T08:02:42;18.02;75.42
66343;DHT22;53144;51.524;5.080;2023-07-20T08:05:09;17.94;77.00
66343;DHT22;53144;51.524;5.080;2023-07-20T08:07:34;18.23;75.83
66343;DHT22;53144;51.524;5.080;2023-07-20T08:09:59;18.34;73.24
66343;DHT22;53144;51.524;5.080;2023-07-20T08:12:26;18.52;73.57
66343;DHT22;53144;51.524;5.080;2023-07-20T08:14:51;18.62;73.40
66343;DHT22;53144;51.524;5.080;2023-07-20T08:17:16;18.82;72.96
66343;DHT22;53144;51.524;5.080;2023-07-20T08:19:42;19.05;73.67
66343;DHT22;53144;51.524;5.080;2023-07-20T08:22:09;18.94;70.82
66343;DHT22;53144;51.524;5.080;2023-07-20T08:24:39;19.20;73.25
66343;DHT22;53144;51.524;5.080;2023-07-20T08:27:05;19.41;72.24
66343;DHT22;53144;51.524;5.080;2023-07-20T08:29:30;18.99;69.84
66343;DHT22;53144;51.524;5.080;2023-07-20T08:31:56;19.22;68.89
66343;DHT22;53144;51.524;5.080;2023-07-20T08:34:21;19.23;67.69
66343;DHT22;53144;51.524;5.080;2023-07-20T08:36:47;19.60;70.14
66343;DHT22;53144;51.524;5.080;2023-07-20T08:39:12;19.73;67.76
66343;DHT22;53144;51.524;5.080;2023-07-20T08:41:37;20.02;69.26
66343;DHT22;53144;51.524;5.080;2023-07-20T08:44:05;20.26;67.17
66343;DHT22;53144;51.524;5.080;2023-07-20T08:46:31;20.15;66.31
66343;DHT22;53144;51.524;5.080;2023-07-20T08:48:57;19.71;65.88
66343;DHT22;53144;51.524;5.080;2023-07-20T08:51:23;19.67;66.29
66343;DHT22;53144;51.524;5.080;2023-07-20T08:53:50;19.40;66.35
66343;DHT22;53144;51.524;5.080;2023-07-20T08:56:18;19.20;68.33
66343;DHT22;53144;51.524;5.080;2023-07-20T08:58:45;18.73;72.04
66343;DHT22;53144;51.524;5.080;2023-07-20T09:01:12;18.87;70.54
66343;DHT22;53144;51.524;5.080;2023-07-20T09:03:38;18.81;73.58
66343;DHT22;53144;51.524;5.080;2023-07-20T09:06:05;18.76;72.05
66343;DHT22;53144;51.524;5.080;2023-07-20T09:08:31;19.05;72.38
66343;DHT22;53144;51.524;5.080;2023-07-20T09:10:57;19.57;69.61
66343;DHT22;53144;51.524;5.080;2023-07-20T09:13:24;19.92;67.86
66343;DHT22;53144;51.524;5.080;2023-07-20T09:15:54;20.08;66.91
66343;DHT22;53144;51.524;5.080;2023-07-20T09:18:28;20.40;67.58
66343;DHT22;53144;51.524;5.080;2023-07-20T09:21:04;20.73;65.69
66343;DHT22;53144;51.524;5.080;2023-07-20T09:23:34;20.56;66.09
66343;DHT22;53144;51.524;5.080;2023-07-20T09:26:01;20.88;66.27
66343;DHT22;53144;51.524;5.080;2023-07-20T09:28:26;20.46;65.76
66343;DHT22;53144;51.524;5.080;2023-07-20T09:30:54;20.16;66.20
66343;DHT22;53144;51.524;5.080;2023-07-20T09:33:23;20.63;66.00
66343;DHT22;53144;51.524;5.080;2023-07-20T09:35:49;20.72;65.01
66343;DHT22;53144;51.524;5.080;2023-07-20T09:38:15;20.62;66.36
66343;DHT22;53144;51.524;5.080;2023-07-20T09:40:41;20.36;67.20
66343;DHT22;53144;51.524;5.080;2023-07-20T09:43:10;20.19;64.98
66343;DHT22;53144;51.524;5.080;2023-07-20T09:45:40;20.18;68.08
66343;DHT22;53144;51.524;5.080;2023-07-20T09:48:07;20.19;68.48
66343;DHT22;53144;51.524;5.080;2023-07-20T09:50:34;20.26;66.69
66343;DHT22;53144;51.524;5.080;2023-07-20T09:53:01;20.59;66.86
66343;DHT22;53144;51.524;5.080;2023-07-20T09:55:28;20.77;65.39
66343;DHT22;53144;51.524;5.080;2023-07-20T09:57:56;20.70;66.44
66343;DHT22;53144;51.524;5.080;2023-07-20T10:00:22;20.73;65.27
66343;DHT22;53144;51.524;5.080;2023-07-20T10:02:51;20.72;65.76
66343;DHT22;53144;51.524;5.080;2023-07-20T10:05:18;20.74;63.50
66343;DHT22;53144;51.524;5.080;2023-07-20T10:07:47;20.69;65.22
66343;DHT22;53144;51.524;5.080;2023-07-20T10:10:14;20.69;64.87
66343;DHT22;53144;51.524;5.080;2023-07-20T10:12:40;20.60;67.31
66343;DHT22;53144;51.524;5.080;2023-07-20T10:15:24;20.67;65.64
66343;DHT22;53144;51.524;5.080;2023-07-20T10:20:39;20.26;64.61
66343;DHT22;53144;51.524;5.080;2023-07-20T10:23:06;20.21;64.31
66343;DHT22;53144;51.524;5.080;2023-07-20T10:25:32;20.07;64.23
66343;DHT22;53144;51.524;5.080;2023-07-20T10:28:04;20.22;65.92
66343;DHT22;53144;51.524;5.080;2023-07-20T10:30:30;21.65;63.27
66343;DHT22;53144;51.524;5.080;2023-07-20T10:32:56;21.39;62.41
66343;DHT22;53144;51.524;5.080;2023-07-20T10:35:21;20.79;63.49
66343;DHT22;53144;51.524;5.080;2023-07-20T10:40:26;20.60;64.41
66343;DHT22;53144;51.524;5.080;2023-07-20T10:43:09;20.56;65.11
66343;DHT22;53144;51.524;5.080;2023-07-20T10:45:53;20.50;65.73
66343;DHT22;53144;51.524;5.080;2023-07-20T10:48:20;22.21;60.93
66343;DHT22;53144;51.524;5.080;2023-07-20T10:53:35;22.78;57.72
66343;DHT22;53144;51.524;5.080;2023-07-20T10:56:15;22.95;57.75
66343;DHT22;53144;51.524;5.080;2023-07-20T10:58:44;22.14;62.27
66343;DHT22;53144;51.524;5.080;2023-07-20T11:01:13;21.83;62.56
66343;DHT22;53144;51.524;5.080;2023-07-20T11:03:39;21.24;64.10
66343;DHT22;53144;51.524;5.080;2023-07-20T11:08:55;20.79;66.01
66343;DHT22;53144;51.524;5.080;2023-07-20T11:14:02;21.08;63.97
66343;DHT22;53144;51.524;5.080;2023-07-20T11:16:40;20.76;63.70
66343;DHT22;53144;51.524;5.080;2023-07-20T11:21:43;20.95;64.39
66343;DHT22;53144;51.524;5.080;2023-07-20T11:24:08;21.44;62.22
66343;DHT22;53144;51.524;5.080;2023-07-20T11:29:07;22.71;62.13
66343;DHT22;53144;51.524;5.080;2023-07-20T11:31:35;22.51;59.54
66343;DHT22;53144;51.524;5.080;2023-07-20T11:34:01;21.58;60.69
66343;DHT22;53144;51.524;5.080;2023-07-20T11:36:26;21.46;61.07
66343;DHT22;53144;51.524;5.080;2023-07-20T11:38:53;21.85;60.63
66343;DHT22;53144;51.524;5.080;2023-07-20T11:41:19;21.94;59.95
66343;DHT22;53144;51.524;5.080;2023-07-20T11:43:45;21.99;60.81
66343;DHT22;53144;51.524;5.080;2023-07-20T11:46:10;21.93;60.04
66343;DHT22;53144;51.524;5.080;2023-07-20T11:48:36;21.88;60.31
66343;DHT22;53144;51.524;5.080;2023-07-20T11:51:01;21.31;60.31
66343;DHT22;53144;51.524;5.080;2023-07-20T11:53:27;21.21;60.49
66343;DHT22;53144;51.524;5.080;2023-07-20T11:55:53;21.12;61.64
66343;DHT22;53144;51.524;5.080;2023-07-20T11:58:19;20.98;61.41
66343;DHT22;53144;51.524;5.080;2023-07-20T12:00:44;21.01;62.41
66343;DHT22;53144;51.524;5.080;2023-07-20T12:03:12;21.11;61.59
66343;DHT22;53144;51.524;5.080;2023-07-20T12:05:40;21.32;62.67
66343;DHT22;53144;51.524;5.080;2023-07-20T12:08:06;21.35;62.80
66343;DHT22;53144;51.524;5.080;2023-07-20T12:10:31;21.53;61.87
66343;DHT22;53144;51.524;5.080;2023-07-20T12:13:03;21.69;60.34
66343;DHT22;53144;51.524;5.080;2023-07-20T12:15:29;21.08;61.27
66343;DHT22;53144;51.524;5.080;2023-07-20T12:18:01;21.39;61.92
66343;DHT22;53144;51.524;5.080;2023-07-20T12:20:30;21.42;62.87
66343;DHT22;53144;51.524;5.080;2023-07-20T12:22:59;21.71;60.95
66343;DHT22;53144;51.524;5.080;2023-07-20T12:25:43;21.61;62.35
66343;DHT22;53144;51.524;5.080;2023-07-20T12:28:11;21.38;61.73
66343;DHT22;53144;51.524;5.080;2023-07-20T12:30:38;21.53;60.14
66343;DHT22;53144;51.524;5.080;2023-07-20T12:33:04;21.92;59.26
66343;DHT22;53144;51.524;5.080;2023-07-20T12:35:30;21.52;60.56
66343;DHT22;53144;51.524;5.080;2023-07-20T12:37:56;21.58;59.61
66343;DHT22;53144;51.524;5.080;2023-07-20T12:40:21;21.75;62.73
66343;DHT22;53144;51.524;5.080;2023-07-20T12:42:46;21.52;62.26
66343;DHT22;53144;51.524;5.080;2023-07-20T12:45:13;21.65;60.58
66343;DHT22;53144;51.524;5.080;2023-07-20T12:47:39;21.86;62.90
66343;DHT22;53144;51.524;5.080;2023-07-20T12:50:04;22.16;60.87
66343;DHT22;53144;51.524;5.080;2023-07-20T12:52:31;21.85;59.65
66343;DHT22;53144;51.524;5.080;2023-07-20T12:54:57;22.39;58.56
66343;DHT22;53144;51.524;5.080;2023-07-20T12:57:23;22.55;60.93
66343;DHT22;53144;51.524;5.080;2023-07-20T12:59:48;23.30;58.30
66343;DHT22;53144;51.524;5.080;2023-07-20T13:02:14;22.43;56.21
66343;DHT22;53144;51.524;5.080;2023-07-20T13:04:39;22.62;57.96
66343;DHT22;53144;51.524;5.080;2023-07-20T13:07:05;22.71;57.82
66343;DHT22;53144;51.524;5.080;2023-07-20T13:09:30;24.07;54.62
66343;DHT22;53144;51.524;5.080;2023-07-20T13:11:56;24.02;55.54
66343;DHT22;53144;51.524;5.080;2023-07-20T13:14:22;23.54;58.16
66343;DHT22;53144;51.524;5.080;2023-07-20T13:16:47;23.85;56.76
66343;DHT22;53144;51.524;5.080;2023-07-20T13:19:13;24.80;57.27
66343;DHT22;53144;51.524;5.080;2023-07-20T13:21:38;25.15;53.25
66343;DHT22;53144;51.524;5.080;2023-07-20T13:24:04;23.51;55.66
66343;DHT22;53144;51.524;5.080;2023-07-20T13:26:29;23.31;58.11
66343;DHT22;53144;51.524;5.080;2023-07-20T13:28:54;22.89;61.28
66343;DHT22;53144;51.524;5.080;2023-07-20T13:31:20;22.00;59.73
66343;DHT22;53144;51.524;5.080;2023-07-20T13:33:46;21.66;59.67
66343;DHT22;53144;51.524;5.080;2023-07-20T13:36:11;21.56;61.89
66343;DHT22;53144;51.524;5.080;2023-07-20T13:38:36;21.86;61.84
66343;DHT22;53144;51.524;5.080;2023-07-20T13:41:02;21.65;59.92
66343;DHT22;53144;51.524;5.080;2023-07-20T13:43:27;21.59;60.40
66343;DHT22;53144;51.524;5.080;2023-07-20T13:45:52;21.86;59.03
66343;DHT22;53144;51.524;5.080;2023-07-20T13:48:18;22.18;58.99
66343;DHT22;53144;51.524;5.080;2023-07-20T13:50:46;22.57;61.56
66343;DHT22;53144;51.524;5.080;2023-07-20T13:53:11;22.76;58.83
66343;DHT22;53144;51.524;5.080;2023-07-20T13:55:38;22.69;59.83
66343;DHT22;53144;51.524;5.080;2023-07-20T13:58:03;22.68;60.90
66343;DHT22;53144;51.524;5.080;2023-07-20T14:00:29;22.65;58.54
66343;DHT22;53144;51.524;5.080;2023-07-20T14:02:58;22.33;61.96
66343;DHT22;53144;51.524;5.080;2023-07-20T14:05:24;22.36;63.37
66343;DHT22;53144;51.524;5.080;2023-07-20T14:07:49;22.07;61.93
66343;DHT22;53144;51.524;5.080;2023-07-20T14:10:15;21.61;63.41
66343;DHT22;53144;51.524;5.080;2023-07-20T14:12:40;21.49;63.69
66343;DHT22;53144;51.524;5.080;2023-07-20T14:15:06;21.53;64.46
66343;DHT22;53144;51.524;5.080;2023-07-20T14:17:32;21.73;62.93
66343;DHT22;53144;51.524;5.080;2023-07-20T14:19:57;21.71;63.32
66343;DHT22;53144;51.524;5.080;2023-07-20T14:22:22;21.93;63.22
66343;DHT22;53144;51.524;5.080;2023-07-20T14:24:49;21.86;63.52
66343;DHT22;53144;51.524;5.080;2023-07-20T14:27:14;22.20;63.80
66343;DHT22;53144;51.524;5.080;2023-07-20T14:29:39;22.13;61.46
66343;DHT22;53144;51.524;5.080;2023-07-20T14:32:05;22.02;62.12
66343;DHT22;53144;51.524;5.080;2023-07-20T14:34:32;22.23;59.41
66343;DHT22;53144;51.524;5.080;2023-07-20T14:37:01;22.11;64.28
66343;DHT22;53144;51.524;5.080;2023-07-20T14:39:26;22.04;61.76
66343;DHT22;53144;51.524;5.080;2023-07-20T14:41:52;22.06;61.32
66343;DHT22;53144;51.524;5.080;2023-07-20T14:44:17;22.07;60.71
66343;DHT22;53144;51.524;5.080;2023-07-20T14:46:43;22.02;60.95
66343;DHT22;53144;51.524;5.080;2023-07-20T14:49:08;21.90;59.60
66343;DHT22;53144;51.524;5.080;2023-07-20T14:51:34;21.63;63.75
66343;DHT22;53144;51.524;5.080;2023-07-20T14:54:01;21.65;62.12
66343;DHT22;53144;51.524;5.080;2023-07-20T14:56:27;21.51;61.64
66343;DHT22;53144;51.524;5.080;2023-07-20T14:58:52;21.35;63.04
66343;DHT22;53144;51.524;5.080;2023-07-20T15:01:18;21.07;66.81
66343;DHT22;53144;51.524;5.080;2023-07-20T15:03:43;20.84;64.76
66343;DHT22;53144;51.524;5.080;2023-07-20T15:06:11;20.84;64.98
66343;DHT22;53144;51.524;5.080;2023-07-20T15:08:37;20.80;67.37
66343;DHT22;53144;51.524;5.080;2023-07-20T15:11:02;20.77;66.52
66343;DHT22;53144;51.524;5.080;2023-07-20T15:13:28;20.87;63.99
66343;DHT22;53144;51.524;5.080;2023-07-20T15:15:53;20.93;66.31
66343;DHT22;53144;51.524;5.080;2023-07-20T15:18:19;20.97;64.82
66343;DHT22;53144;51.524;5.080;2023-07-20T15:20:44;20.94;65.55
66343;DHT22;53144;51.524;5.080;2023-07-20T15:23:10;20.98;64.77
66343;DHT22;53144;51.524;5.080;2023-07-20T15:25:36;20.90;66.00
66343;DHT22;53144;51.524;5.080;2023-07-20T15:28:01;21.11;64.69
66343;DHT22;53144;51.524;5.080;2023-07-20T15:30:28;21.24;63.84
66343;DHT22;53144;51.524;5.080;2023-07-20T15:32:54;21.20;64.09
66343;DHT22;53144;51.524;5.080;2023-07-20T15:35:22;21.00;63.67
66343;DHT22;53144;51.524;5.080;2023-07-20T15:37:48;20.97;64.35
66343;DHT22;53144;51.524;5.080;2023-07-20T15:40:13;20.91;65.53
66343;DHT22;53144;51.524;5.080;2023-07-20T15:42:39;20.77;66.67
66343;DHT22;53144;51.524;5.080;2023-07-20T15:45:05;20.62;66.98
66343;DHT22;53144;51.524;5.080;2023-07-20T15:47:31;20.60;65.19
66343;DHT22;53144;51.524;5.080;2023-07-20T15:49:56;20.45;65.06
66343;DHT22;53144;51.524;5.080;2023-07-20T15:52:22;20.52;65.27
66343;DHT22;53144;51.524;5.080;2023-07-20T15:54:48;20.52;62.82